Time;durP1;ratioP1;P1;durP2;ratioP2;P2;SDS_P1;SDS_P2;PMS_P1;PMS_P2;Temp;Humidity;BMP_temperature;BMP_pressure;BME280_temperature;BME280_humidity;BME280_pressure;Samples;Min_cycle;Max_cycle;Signal;HPM_P1;HPM_P2
2021/01/30 00:01:46;;;;;;;11.52;4.10;;;;;;;;;;5075775;28;20270;-65
2021/01/30 00:04:12;;;;;;;13.10;4.80;;;;;;;;;;5062387;28;20029;-66
2021/01/30 00:06:38;;;;;;;10.60;3.70;;;;;;;;;;5067517;28;20115;-66
2021/01/30 00:09:03;;;;;;;12.88;4.68;;;;;;;;;;5067661;28;20170;-66
2021/01/30 00:11:28;;;;;;;11.27;5.10;;;;;;;;;;5066997;28;20016;-66
2021/01/30 00:13:53;;;;;;;13.77;5.00;;;;;;;;;;5067827;28;20016;-65
2021/01/30 00:16:19;;;;;;;24.10;5.67;;;;;;;;;;5068114;28;20266;-66
2021/01/30 00:18:44;;;;;;;16.25;6.97;;;;;;;;;;5067024;28;20349;-66
2021/01/30 00:21:10;;;;;;;20.65;6.80;;;;;;;;;;5065912;28;20028;-65
2021/01/30 00:23:35;;;;;;;27.40;8.35;;;;;;;;;;5063720;28;20031;-65
2021/01/30 00:26:00;;;;;;;22.50;8.13;;;;;;;;;;5065858;28;20020;-65
2021/01/30 00:28:25;;;;;;;30.53;8.07;;;;;;;;;;5064977;28;20267;-65
2021/01/30 00:30:51;;;;;;;19.63;7.50;;;;;;;;;;5065362;28;20353;-65
2021/01/30 00:33:16;;;;;;;25.85;7.50;;;;;;;;;;5065746;28;20631;-66
2021/01/30 00:35:41;;;;;;;16.02;6.90;;;;;;;;;;5067087;28;20074;-65
2021/01/30 00:38:06;;;;;;;20.43;7.17;;;;;;;;;;5065750;28;20033;-66
2021/01/30 00:40:31;;;;;;;21.73;6.70;;;;;;;;;;5066872;28;20294;-66
2021/01/30 00:42:57;;;;;;;18.95;5.85;;;;;;;;;;5066697;28;20036;-64
2021/01/30 00:45:23;;;;;;;19.10;6.30;;;;;;;;;;5067007;28;20027;-64
2021/01/30 00:47:48;;;;;;;18.83;5.70;;;;;;;;;;5065997;28;20523;-67
2021/01/30 00:50:15;;;;;;;18.63;5.40;;;;;;;;;;5067089;28;20108;-65
2021/01/30 00:52:42;;;;;;;13.25;6.60;;;;;;;;;;5065981;28;20031;-65
2021/01/30 00:55:08;;;;;;;16.45;6.07;;;;;;;;;;5066190;28;20017;-65
2021/01/30 00:57:33;;;;;;;18.50;6.60;;;;;;;;;;5066477;28;20037;-64
2021/01/30 00:59:59;;;;;;;17.73;5.93;;;;;;;;;;5065980;28;20551;-65
2021/01/30 01:02:24;;;;;;;23.63;6.57;;;;;;;;;;5066669;28;20358;-65
2021/01/30 01:04:49;;;;;;;23.52;8.88;;;;;;;;;;5065699;28;20267;-66
2021/01/30 01:07:14;;;;;;;19.63;6.72;;;;;;;;;;5067014;28;20725;-65
2021/01/30 01:09:40;;;;;;;14.32;6.07;;;;;;;;;;5066471;28;20029;-65
2021/01/30 01:12:05;;;;;;;23.48;6.38;;;;;;;;;;5066114;28;20091;-66
2021/01/30 01:14:30;;;;;;;22.27;5.63;;;;;;;;;;5065399;28;20009;-64
2021/01/30 01:16:56;;;;;;;13.87;5.77;;;;;;;;;;5067357;28;20471;-64
2021/01/30 01:19:21;;;;;;;14.87;5.93;;;;;;;;;;5069101;28;20337;-64
2021/01/30 01:21:50;;;;;;;12.45;6.15;;;;;;;;;;5069870;28;20701;-64
2021/01/30 01:24:16;;;;;;;19.05;6.35;;;;;;;;;;5069455;28;20024;-64
2021/01/30 01:26:43;;;;;;;10.98;4.82;;;;;;;;;;5069898;28;20380;-66
2021/01/30 01:29:08;;;;;;;16.95;4.85;;;;;;;;;;5069936;28;20059;-66
2021/01/30 01:31:33;;;;;;;16.90;5.37;;;;;;;;;;5069579;28;20044;-64
2021/01/30 01:33:58;;;;;;;14.63;4.83;;;;;;;;;;5068917;28;20262;-65
2021/01/30 01:36:23;;;;;;;19.40;5.37;;;;;;;;;;5070162;28;20262;-64
2021/01/30 01:38:49;;;;;;;18.53;5.10;;;;;;;;;;5068644;28;20329;-65
2021/01/30 01:41:15;;;;;;;17.02;5.50;;;;;;;;;;5069175;28;20271;-65
2021/01/30 01:43:40;;;;;;;24.48;6.82;;;;;;;;;;5068835;28;20066;-66
2021/01/30 01:46:11;;;;;;;18.40;7.63;;;;;;;;;;5068929;28;20047;-66
2021/01/30 01:48:41;;;;;;;15.15;6.40;;;;;;;;;;5069102;28;20031;-64
2021/01/30 01:51:09;;;;;;;15.13;6.20;;;;;;;;;;5068975;28;20500;-66
2021/01/30 01:53:37;;;;;;;18.98;6.43;;;;;;;;;;5068845;28;20481;-64
2021/01/30 01:56:07;;;;;;;18.48;5.90;;;;;;;;;;5069017;28;20485;-64
2021/01/30 01:58:33;;;;;;;15.13;5.85;;;;;;;;;;5069726;28;20028;-64
2021/01/30 02:00:58;;;;;;;18.13;6.30;;;;;;;;;;5068494;28;20115;-65
2021/01/30 02:03:24;;;;;;;16.83;5.90;;;;;;;;;;5069046;28;20488;-66
2021/01/30 02:08:52;;;;;;;20.27;5.78;;;;;;;;;;5068939;28;20086;-65
2021/01/30 02:11:17;;;;;;;17.02;5.82;;;;;;;;;;5050291;28;20419;-65
2021/01/30 02:13:45;;;;;;;14.75;6.65;;;;;;;;;;5068565;28;20107;-64
2021/01/30 02:16:29;;;;;;;16.27;7.10;;;;;;;;;;5069243;28;20016;-64
2021/01/30 02:19:15;;;;;;;19.60;7.75;;;;;;;;;;5066700;28;20439;-64
2021/01/30 02:21:40;;;;;;;17.70;6.50;;;;;;;;;;5067660;28;20037;-66
2021/01/30 02:24:11;;;;;;;16.65;6.93;;;;;;;;;;5068557;28;20035;-64
2021/01/30 02:26:55;;;;;;;16.73;6.18;;;;;;;;;;5068569;28;20025;-64
2021/01/30 02:29:27;;;;;;;19.42;6.85;;;;;;;;;;5068337;28;20078;-64
2021/01/30 02:31:59;;;;;;;22.85;8.85;;;;;;;;;;5067105;28;20082;-64
2021/01/30 02:34:26;;;;;;;30.88;14.10;;;;;;;;;;5067251;28;20029;-64
2021/01/30 02:36:51;;;;;;;35.35;16.58;;;;;;;;;;5067896;28;20757;-65
2021/01/30 02:39:17;;;;;;;33.97;17.63;;;;;;;;;;5068145;28;20488;-65
2021/01/30 02:41:47;;;;;;;37.15;18.52;;;;;;;;;;5067515;28;20775;-64
2021/01/30 02:44:13;;;;;;;44.97;22.20;;;;;;;;;;5068106;28;20029;-65
2021/01/30 02:46:40;;;;;;;42.35;19.13;;;;;;;;;;5049385;28;20048;-66
2021/01/30 02:49:10;;;;;;;46.58;21.30;;;;;;;;;;5067553;28;20130;-65
2021/01/30 02:51:36;;;;;;;;;;;;;;;;;;5068535;28;20089;-65
2021/01/30 02:54:01;;;;;;;55.97;22.85;;;;;;;;;;5067507;28;19920;-64
2021/01/30 02:56:27;;;;;;;48.40;26.65;;;;;;;;;;5069190;28;20048;-64
2021/01/30 02:58:58;;;;;;;51.95;23.38;;;;;;;;;;5075968;28;20026;-64
2021/01/30 03:01:23;;;;;;;54.92;24.50;;;;;;;;;;5076211;28;20020;-66
2021/01/30 03:03:52;;;;;;;59.90;23.27;;;;;;;;;;5070206;28;20520;-64
2021/01/30 03:06:20;;;;;;;57.50;23.92;;;;;;;;;;5067563;28;20025;-64
2021/01/30 03:08:49;;;;;;;57.45;26.63;;;;;;;;;;5066221;28;20481;-64
2021/01/30 03:11:17;;;;;;;63.20;23.60;;;;;;;;;;5066815;28;20120;-64
2021/01/30 03:13:42;;;;;;;46.13;22.40;;;;;;;;;;5066140;28;20469;-65
2021/01/30 03:16:12;;;;;;;47.20;22.33;;;;;;;;;;5067547;28;20654;-65
2021/01/30 03:18:39;;;;;;;49.30;21.80;;;;;;;;;;5048858;28;20319;-64
2021/01/30 03:21:08;;;;;;;49.10;22.88;;;;;;;;;;5067478;28;20078;-65
2021/01/30 03:23:34;;;;;;;53.97;20.60;;;;;;;;;;5067322;28;20062;-65
2021/01/30 03:26:01;;;;;;;50.72;22.50;;;;;;;;;;5056780;28;20023;-64
2021/01/30 03:28:26;;;;;;;46.42;19.98;;;;;;;;;;5067049;28;20020;-65
2021/01/30 03:30:51;;;;;;;42.50;19.03;;;;;;;;;;5066593;28;21929;-64
2021/01/30 03:33:17;;;;;;;48.95;19.50;;;;;;;;;;5066359;28;20269;-64
2021/01/30 03:35:42;;;;;;;46.28;18.45;;;;;;;;;;5066413;28;20028;-64
2021/01/30 03:38:07;;;;;;;31.38;16.08;;;;;;;;;;5066535;28;20036;-64
2021/01/30 03:40:32;;;;;;;31.50;14.87;;;;;;;;;;5066269;28;20282;-63
2021/01/30 03:42:57;;;;;;;30.15;15.52;;;;;;;;;;5067050;28;20869;-64
2021/01/30 03:45:26;;;;;;;30.85;14.95;;;;;;;;;;5067077;28;20124;-64
2021/01/30 03:47:51;;;;;;;37.40;17.30;;;;;;;;;;5065927;28;20020;-64
2021/01/30 03:50:17;;;;;;;33.38;16.50;;;;;;;;;;5066563;28;20038;-64
2021/01/30 03:52:42;;;;;;;41.63;19.00;;;;;;;;;;5066831;28;20073;-64
2021/01/30 03:55:08;;;;;;;38.47;17.98;;;;;;;;;;5066477;28;20100;-64
2021/01/30 03:57:34;;;;;;;46.17;20.08;;;;;;;;;;5066292;28;20024;-64
2021/01/30 03:59:59;;;;;;;43.78;19.75;;;;;;;;;;5075578;22;20063;-64
2021/01/30 04:02:25;;;;;;;41.17;18.70;;;;;;;;;;5065993;28;20020;-65
2021/01/30 04:04:50;;;;;;;51.38;19.55;;;;;;;;;;5066210;28;20031;-65
2021/01/30 04:07:15;;;;;;;44.65;19.80;;;;;;;;;;5065712;28;20411;-64
2021/01/30 04:09:40;;;;;;;41.08;20.52;;;;;;;;;;5066551;28;20016;-65
2021/01/30 04:12:06;;;;;;;37.80;19.58;;;;;;;;;;5065957;28;20699;-64
2021/01/30 04:14:32;;;;;;;42.80;19.83;;;;;;;;;;5066352;28;20036;-65
2021/01/30 04:16:57;;;;;;;46.55;19.70;;;;;;;;;;5066652;28;20013;-64
2021/01/30 04:19:22;;;;;;;37.80;17.23;;;;;;;;;;5065104;28;20024;-65
2021/01/30 04:21:47;;;;;;;33.65;17.70;;;;;;;;;;5066422;28;20302;-64
2021/01/30 04:24:13;;;;;;;32.87;16.57;;;;;;;;;;5065635;28;20484;-66
2021/01/30 04:26:38;;;;;;;24.17;13.88;;;;;;;;;;5066887;28;20282;-64
2021/01/30 04:29:03;;;;;;;27.07;14.80;;;;;;;;;;5066168;28;20108;-65
2021/01/30 04:31:28;;;;;;;25.17;14.00;;;;;;;;;;5065827;28;20259;-64
2021/01/30 04:33:53;;;;;;;28.83;14.98;;;;;;;;;;5066123;28;20107;-66
2021/01/30 04:36:20;;;;;;;26.58;15.32;;;;;;;;;;5065184;28;20392;-64
2021/01/30 04:38:45;;;;;;;29.92;14.18;;;;;;;;;;5065326;28;20078;-65
2021/01/30 04:41:23;;;;;;;31.42;16.27;;;;;;;;;;5065983;28;20009;-65
2021/01/30 04:43:55;;;;;;;29.08;15.90;;;;;;;;;;5066228;28;20067;-65
2021/01/30 04:46:31;;;;;;;29.70;14.35;;;;;;;;;;5065665;28;20028;-65
2021/01/30 04:49:00;;;;;;;31.27;15.90;;;;;;;;;;5065913;28;20020;-65
2021/01/30 04:51:34;;;;;;;28.63;15.40;;;;;;;;;;5065545;28;20024;-65
2021/01/30 04:54:05;;;;;;;29.58;15.07;;;;;;;;;;5069398;28;20451;-64
2021/01/30 04:56:33;;;;;;;31.17;16.23;;;;;;;;;;5069305;28;20028;-65
2021/01/30 04:59:03;;;;;;;29.17;15.63;;;;;;;;;;5070268;28;20024;-65
2021/01/30 05:01:48;;;;;;;26.27;14.88;;;;;;;;;;5069582;28;20410;-65
2021/01/30 05:04:26;;;;;;;30.15;15.23;;;;;;;;;;5069484;28;20028;-65
2021/01/30 05:06:59;;;;;;;27.52;15.52;;;;;;;;;;5069438;28;20392;-65
2021/01/30 05:09:33;;;;;;;29.33;14.98;;;;;;;;;;5069552;28;20028;-64
2021/01/30 05:12:09;;;;;;;28.45;15.45;;;;;;;;;;5069188;28;20017;-64
2021/01/30 05:14:38;;;;;;;27.15;15.75;;;;;;;;;;5069365;28;20115;-64
2021/01/30 05:17:08;;;;;;;27.73;15.50;;;;;;;;;;5068859;28;20081;-64
2021/01/30 05:19:36;;;;;;;24.90;15.52;;;;;;;;;;5069021;28;20051;-64
2021/01/30 05:22:02;;;;;;;28.60;16.33;;;;;;;;;;5068238;28;20634;-64
2021/01/30 05:24:28;;;;;;;28.38;15.70;;;;;;;;;;5068633;28;20088;-65
2021/01/30 05:27:12;;;;;;;30.50;16.55;;;;;;;;;;5068399;28;20025;-64
2021/01/30 05:29:56;;;;;;;27.02;16.15;;;;;;;;;;5067422;28;20024;-65
2021/01/30 05:32:30;;;;;;;32.63;16.70;;;;;;;;;;5068694;28;20440;-64
2021/01/30 05:35:01;;;;;;;30.10;17.15;;;;;;;;;;5066298;28;20396;-64
2021/01/30 05:37:29;;;;;;;27.70;15.48;;;;;;;;;;5069187;28;20023;-65
2021/01/30 05:40:09;;;;;;;30.42;16.73;;;;;;;;;;5067927;28;20078;-64
2021/01/30 05:42:43;;;;;;;27.15;17.20;;;;;;;;;;5068542;28;20024;-65
2021/01/30 05:45:08;;;;;;;30.55;16.27;;;;;;;;;;5068199;28;20025;-65
2021/01/30 05:47:34;;;;;;;27.33;14.93;;;;;;;;;;5068581;28;20492;-65
2021/01/30 05:50:05;;;;;;;25.77;14.27;;;;;;;;;;5069557;28;20020;-65
2021/01/30 05:52:32;;;;;;;29.10;14.35;;;;;;;;;;5068376;28;20028;-65
2021/01/30 05:54:58;;;;;;;22.83;12.85;;;;;;;;;;5067683;28;20130;-64
2021/01/30 05:57:23;;;;;;;27.15;14.43;;;;;;;;;;5068663;28;20042;-64
2021/01/30 05:59:50;;;;;;;23.65;12.80;;;;;;;;;;5068683;28;20492;-64
2021/01/30 06:02:17;;;;;;;27.92;14.35;;;;;;;;;;5067678;28;20035;-65
2021/01/30 06:04:43;;;;;;;25.25;13.45;;;;;;;;;;5067545;28;20450;-65
2021/01/30 06:07:20;;;;;;;22.88;12.52;;;;;;;;;;5068456;28;20048;-64
2021/01/30 06:09:45;;;;;;;23.55;12.43;;;;;;;;;;5068171;28;20017;-64
2021/01/30 06:12:23;;;;;;;19.70;10.73;;;;;;;;;;5067770;28;20070;-64
2021/01/30 06:14:48;;;;;;;19.52;10.38;;;;;;;;;;5068493;28;20016;-65
2021/01/30 06:17:28;;;;;;;18.95;9.77;;;;;;;;;;5067997;28;20070;-64
2021/01/30 06:20:12;;;;;;;17.48;9.35;;;;;;;;;;5068196;28;20119;-64
2021/01/30 06:22:38;;;;;;;14.10;8.88;;;;;;;;;;5067885;28;20056;-64
2021/01/30 06:25:22;;;;;;;18.05;10.02;;;;;;;;;;5068520;28;20117;-65
2021/01/30 06:27:48;;;;;;;18.38;9.10;;;;;;;;;;5067619;28;20016;-65
2021/01/30 06:30:25;;;;;;;15.88;9.40;;;;;;;;;;5067637;28;20028;-65
2021/01/30 06:32:55;;;;;;;18.38;10.20;;;;;;;;;;5068371;28;20029;-65
2021/01/30 06:35:26;;;;;;;18.90;11.32;;;;;;;;;;5067839;28;20101;-64
2021/01/30 06:38:00;;;;;;;18.75;11.00;;;;;;;;;;5066675;28;20032;-64
2021/01/30 06:40:27;;;;;;;19.98;11.18;;;;;;;;;;5067384;28;20492;-65
2021/01/30 06:42:54;;;;;;;20.40;11.45;;;;;;;;;;5067727;28;20032;-63
2021/01/30 06:45:22;;;;;;;24.65;13.82;;;;;;;;;;5067818;28;20531;-65
2021/01/30 06:47:48;;;;;;;23.80;13.50;;;;;;;;;;5067569;28;20020;-64
2021/01/30 06:50:22;;;;;;;24.80;14.63;;;;;;;;;;5067479;28;20456;-64
2021/01/30 06:52:47;;;;;;;27.00;15.32;;;;;;;;;;5067375;28;20081;-65
2021/01/30 06:55:13;;;;;;;29.20;16.65;;;;;;;;;;5067455;28;20452;-64
2021/01/30 06:57:58;;;;;;;30.88;16.58;;;;;;;;;;5067178;28;20020;-64
2021/01/30 07:00:25;;;;;;;33.50;18.67;;;;;;;;;;5066506;28;20031;-64
2021/01/30 07:03:02;;;;;;;34.25;18.92;;;;;;;;;;5067532;28;20035;-64
2021/01/30 07:05:50;;;;;;;40.28;22.23;;;;;;;;;;5067162;28;20028;-64
2021/01/30 07:08:18;;;;;;;40.15;21.30;;;;;;;;;;5066940;28;20039;-64
2021/01/30 07:10:46;;;;;;;42.08;24.25;;;;;;;;;;5066443;28;20480;-64
2021/01/30 07:13:17;;;;;;;41.25;22.67;;;;;;;;;;5067347;28;20044;-64
2021/01/30 07:15:44;;;;;;;42.17;22.98;;;;;;;;;;5063395;28;20024;-64
2021/01/30 07:18:28;;;;;;;39.55;21.33;;;;;;;;;;5061694;28;20031;-64
2021/01/30 07:21:12;;;;;;;40.92;21.75;;;;;;;;;;5065002;28;20043;-66
2021/01/30 07:23:43;;;;;;;40.45;19.88;;;;;;;;;;5064163;28;20038;-66
2021/01/30 07:26:15;;;;;;;41.85;21.92;;;;;;;;;;5064722;28;20025;-66
2021/01/30 07:28:47;;;;;;;39.00;23.10;;;;;;;;;;5065701;28;20024;-65
2021/01/30 07:31:18;;;;;;;39.88;23.38;;;;;;;;;;5063855;28;20020;-64
2021/01/30 07:33:48;;;;;;;37.05;21.50;;;;;;;;;;5064430;28;20055;-65
2021/01/30 07:36:16;;;;;;;42.38;24.17;;;;;;;;;;5064844;28;20016;-64
2021/01/30 07:38:45;;;;;;;42.47;21.77;;;;;;;;;;5065745;28;20048;-64
2021/01/30 07:41:20;;;;;;;43.92;23.25;;;;;;;;;;5066521;28;21778;-64
2021/01/30 07:43:53;;;;;;;42.05;21.42;;;;;;;;;;5066689;28;20067;-65
2021/01/30 07:46:18;;;;;;;44.42;23.45;;;;;;;;;;5065665;28;20388;-64
2021/01/30 07:48:46;;;;;;;39.38;21.35;;;;;;;;;;5066604;28;20016;-65
2021/01/30 07:51:13;;;;;;;42.47;22.30;;;;;;;;;;5066183;28;20024;-64
2021/01/30 07:53:39;;;;;;;40.28;22.40;;;;;;;;;;5066466;28;20100;-64
2021/01/30 07:56:11;;;;;;;41.75;23.13;;;;;;;;;;5066241;28;20027;-64
2021/01/30 07:58:56;;;;;;;46.15;23.00;;;;;;;;;;5065561;28;20027;-65
2021/01/30 08:01:32;;;;;;;42.17;21.80;;;;;;;;;;5066690;28;20042;-64
2021/01/30 08:04:00;;;;;;;44.22;22.27;;;;;;;;;;5066526;28;20045;-64
2021/01/30 08:06:32;;;;;;;44.20;20.70;;;;;;;;;;5066344;28;20051;-66
2021/01/30 08:08:57;;;;;;;37.17;18.27;;;;;;;;;;5066289;28;20020;-64
2021/01/30 08:11:23;;;;;;;39.53;20.30;;;;;;;;;;5066776;28;20074;-64
2021/01/30 08:14:08;;;;;;;42.75;20.90;;;;;;;;;;5065861;28;20378;-67
2021/01/30 08:16:33;;;;;;;40.70;23.35;;;;;;;;;;5065984;28;20118;-64
2021/01/30 08:19:01;;;;;;;38.88;19.85;;;;;;;;;;5065165;28;20413;-64
2021/01/30 08:21:39;;;;;;;40.70;22.08;;;;;;;;;;5065584;28;20278;-64
2021/01/30 08:24:09;;;;;;;40.92;22.13;;;;;;;;;;5065662;28;20020;-65
2021/01/30 08:26:37;;;;;;;44.10;21.88;;;;;;;;;;5068040;28;20480;-66
2021/01/30 08:29:02;;;;;;;41.50;22.80;;;;;;;;;;5067870;28;20052;-65
2021/01/30 08:31:55;;;;;;;38.00;20.58;;;;;;;;;;5068057;28;20098;-64
2021/01/30 08:34:20;;;;;;;42.70;22.45;;;;;;;;;;5070979;28;20266;-64
2021/01/30 08:36:49;;;;;;;39.20;20.05;;;;;;;;;;5071486;28;20027;-66
2021/01/30 08:39:31;;;;;;;43.03;22.13;;;;;;;;;;5068701;28;20339;-63
2021/01/30 08:42:01;;;;;;;37.15;20.45;;;;;;;;;;5066247;28;20133;-65
2021/01/30 08:44:26;;;;;;;;;;;;;;;;;;5067885;28;20361;-64
2021/01/30 08:47:04;;;;;;;42.90;23.48;;;;;;;;;;5066234;28;20576;-64
2021/01/30 08:49:30;;;;;;;41.08;22.58;;;;;;;;;;5067209;28;20028;-64
2021/01/30 08:52:13;;;;;;;39.65;20.60;;;;;;;;;;5073475;28;20050;-64
2021/01/30 08:54:38;;;;;;;42.70;20.38;;;;;;;;;;5066160;28;20029;-67
2021/01/30 08:57:05;;;;;;;43.15;21.48;;;;;;;;;;5070928;28;20028;-64
2021/01/30 08:59:41;;;;;;;39.75;22.52;;;;;;;;;;5067217;28;20043;-66
2021/01/30 09:02:07;;;;;;;38.33;20.73;;;;;;;;;;5067973;28;20400;-64
2021/01/30 09:04:39;;;;;;;32.90;18.30;;;;;;;;;;5066564;28;20032;-66
2021/01/30 09:07:04;;;;;;;36.15;17.77;;;;;;;;;;5066625;28;20544;-67
2021/01/30 09:09:29;;;;;;;40.13;18.60;;;;;;;;;;5066121;28;20085;-66
2021/01/30 09:11:54;;;;;;;34.08;19.73;;;;;;;;;;5064377;28;20048;-64
2021/01/30 09:14:19;;;;;;;22.73;11.52;;;;;;;;;;5066591;28;20267;-65
2021/01/30 09:16:57;;;;;;;33.88;17.40;;;;;;;;;;5066748;28;20085;-65
2021/01/30 09:19:31;;;;;;;28.75;15.82;;;;;;;;;;5066531;28;20822;-65
2021/01/30 09:21:59;;;;;;;31.15;16.50;;;;;;;;;;5066468;28;20048;-66
2021/01/30 09:24:34;;;;;;;27.38;15.13;;;;;;;;;;5065856;28;20021;-65
2021/01/30 09:27:05;;;;;;;29.85;14.95;;;;;;;;;;5066272;28;20524;-64
2021/01/30 09:29:35;;;;;;;24.40;14.43;;;;;;;;;;5065313;28;20404;-64
2021/01/30 09:32:00;;;;;;;28.70;14.40;;;;;;;;;;5064886;28;20024;-65
2021/01/30 09:34:30;;;;;;;28.42;15.40;;;;;;;;;;5066183;28;20025;-64
2021/01/30 09:36:56;;;;;;;24.35;13.60;;;;;;;;;;5065006;28;20029;-64
2021/01/30 09:39:24;;;;;;;25.17;15.70;;;;;;;;;;5063925;28;20028;-66
2021/01/30 09:41:49;;;;;;;24.20;13.77;;;;;;;;;;5063078;28;20024;-65
2021/01/30 09:44:17;;;;;;;23.83;13.23;;;;;;;;;;5065061;28;20099;-65
2021/01/30 09:46:44;;;;;;;24.08;14.65;;;;;;;;;;5064743;28;20551;-64
2021/01/30 09:49:14;;;;;;;21.33;13.60;;;;;;;;;;5064932;28;20111;-64
2021/01/30 09:51:41;;;;;;;21.08;13.10;;;;;;;;;;5063758;28;20059;-64
2021/01/30 09:54:07;;;;;;;21.38;12.85;;;;;;;;;;5064907;28;20036;-65
2021/01/30 09:56:34;;;;;;;18.67;11.52;;;;;;;;;;5064129;28;20012;-66
2021/01/30 09:59:00;;;;;;;21.25;12.75;;;;;;;;;;5077297;22;20059;-87
2021/01/30 10:01:28;;;;;;;18.20;11.93;;;;;;;;;;5074789;28;20024;-89
2021/01/30 10:03:53;;;;;;;25.27;13.45;;;;;;;;;;5091708;28;20695;-87
2021/01/30 10:06:25;;;;;;;22.15;12.07;;;;;;;;;;5094644;28;20099;-88
2021/01/30 10:08:50;;;;;;;18.77;9.70;;;;;;;;;;5076319;28;20049;-86
2021/01/30 10:11:17;;;;;;;21.42;12.75;;;;;;;;;;5067318;28;20038;-86
2021/01/30 10:13:47;;;;;;;20.98;12.02;;;;;;;;;;5084679;28;20063;-87
2021/01/30 10:16:16;;;;;;;20.20;11.90;;;;;;;;;;5065953;28;20020;-88
2021/01/30 10:18:51;;;;;;;17.33;10.93;;;;;;;;;;5083181;28;20066;-87
2021/01/30 10:21:27;;;;;;;17.95;11.10;;;;;;;;;;5069642;28;20043;-87
2021/01/30 10:23:53;;;;;;;20.10;11.20;;;;;;;;;;5067760;28;20043;-87
2021/01/30 10:26:21;;;;;;;16.52;10.23;;;;;;;;;;5065818;28;20058;-87
2021/01/30 10:28:57;;;;;;;16.90;10.95;;;;;;;;;;5067123;28;20025;-89
2021/01/30 10:31:31;;;;;;;18.73;10.23;;;;;;;;;;5067396;28;20074;-88
2021/01/30 10:34:15;;;;;;;19.75;11.45;;;;;;;;;;5067151;28;20028;-88
2021/01/30 10:36:49;;;;;;;21.60;10.98;;;;;;;;;;5083136;28;20044;-87
2021/01/30 10:39:17;;;;;;;19.73;12.25;;;;;;;;;;5067126;28;20107;-88
2021/01/30 10:41:42;;;;;;;18.52;12.02;;;;;;;;;;5083096;28;20028;-88
2021/01/30 10:44:10;;;;;;;20.17;12.13;;;;;;;;;;5085120;28;20024;-88
2021/01/30 10:46:44;;;;;;;21.08;10.95;;;;;;;;;;5068739;28;20042;-89
2021/01/30 10:49:18;;;;;;;22.45;12.50;;;;;;;;;;5065327;28;20379;-89
2021/01/30 10:51:43;;;;;;;14.40;7.40;;;;;;;;;;5084400;28;20020;-88
2021/01/30 10:54:18;;;;;;;11.77;7.00;;;;;;;;;;5067721;28;20503;-88
2021/01/30 10:56:43;;;;;;;16.02;9.25;;;;;;;;;;5082823;28;20024;-87
2021/01/30 10:59:22;;;;;;;16.70;10.00;;;;;;;;;;5066624;28;20351;-87
2021/01/30 11:01:50;;;;;;;22.23;10.77;;;;;;;;;;5066624;28;20487;-88
2021/01/30 11:04:23;;;;;;;18.60;10.32;;;;;;;;;;5066291;28;20028;-87
2021/01/30 11:06:49;;;;;;;18.17;10.77;;;;;;;;;;5082149;28;20038;-86
2021/01/30 11:09:14;;;;;;;19.33;10.55;;;;;;;;;;5067516;28;20024;-87
2021/01/30 11:11:39;;;;;;;15.85;9.15;;;;;;;;;;5085830;28;20476;-86
2021/01/30 11:14:15;;;;;;;16.60;9.95;;;;;;;;;;5066613;28;20028;-90
2021/01/30 11:16:41;;;;;;;12.23;7.97;;;;;;;;;;5075029;28;20035;-88
2021/01/30 11:19:21;;;;;;;19.02;5.70;;;;;;;;;;5073316;28;20024;-89
2021/01/30 11:22:01;;;;;;;11.30;5.80;;;;;;;;;;5086128;28;20491;-88
2021/01/30 11:24:46;;;;;;;12.27;6.10;;;;;;;;;;5088619;28;20038;-89
2021/01/30 11:27:27;;;;;;;10.70;4.50;;;;;;;;;;5090943;28;20666;-87
2021/01/30 11:29:52;;;;;;;13.40;6.55;;;;;;;;;;5092149;28;20089;-89
2021/01/30 11:32:19;;;;;;;13.38;8.02;;;;;;;;;;5094027;28;20032;-89
2021/01/30 11:34:46;;;;;;;12.13;8.25;;;;;;;;;;5094123;28;20016;-89
2021/01/30 11:37:12;;;;;;;15.20;8.20;;;;;;;;;;5075120;28;20071;-89
2021/01/30 11:39:42;;;;;;;11.00;7.70;;;;;;;;;;5094737;28;20498;-89
2021/01/30 11:42:07;;;;;;;9.13;4.20;;;;;;;;;;5077861;28;20024;-87
2021/01/30 11:44:32;;;;;;;14.30;7.60;;;;;;;;;;5080638;28;20699;-86
2021/01/30 11:46:57;;;;;;;12.05;7.78;;;;;;;;;;5092724;28;20028;-88
2021/01/30 11:49:23;;;;;;;11.13;6.78;;;;;;;;;;5093675;28;20016;-88
2021/01/30 11:51:48;;;;;;;11.13;5.07;;;;;;;;;;5092981;28;20035;-88
2021/01/30 11:54:14;;;;;;;11.90;5.55;;;;;;;;;;5093808;28;20093;-88
2021/01/30 11:56:39;;;;;;;13.15;7.15;;;;;;;;;;5093390;28;20022;-87
2021/01/30 11:59:05;;;;;;;11.50;7.10;;;;;;;;;;5076192;28;20039;-87
2021/01/30 12:01:34;;;;;;;8.43;4.80;;;;;;;;;;5077950;28;20133;-88
2021/01/30 12:03:59;;;;;;;12.57;7.68;;;;;;;;;;5072112;28;20248;-87
2021/01/30 12:06:24;;;;;;;9.85;6.93;;;;;;;;;;5067200;28;20538;-89
2021/01/30 12:08:50;;;;;;;10.80;5.72;;;;;;;;;;5085286;28;20043;-88
2021/01/30 12:11:18;;;;;;;7.65;4.20;;;;;;;;;;5068783;28;20031;-88
2021/01/30 12:13:43;;;;;;;10.52;5.95;;;;;;;;;;5083930;28;20718;-88
2021/01/30 12:16:08;;;;;;;10.65;6.25;;;;;;;;;;5084276;28;20092;-87
2021/01/30 12:18:33;;;;;;;7.88;4.53;;;;;;;;;;5085493;28;20016;-88
2021/01/30 12:20:59;;;;;;;11.15;6.65;;;;;;;;;;5084952;28;20027;-89
2021/01/30 12:23:24;;;;;;;8.88;5.97;;;;;;;;;;5084540;28;20016;-88
2021/01/30 12:25:49;;;;;;;9.23;5.43;;;;;;;;;;5086151;28;20043;-88
2021/01/30 12:28:17;;;;;;;8.82;5.72;;;;;;;;;;5088221;28;20024;-89
2021/01/30 12:30:43;;;;;;;11.65;6.68;;;;;;;;;;5088632;28;20052;-88
2021/01/30 12:33:08;;;;;;;9.68;4.60;;;;;;;;;;5077788;28;20035;-89
2021/01/30 12:35:34;;;;;;;10.18;5.30;;;;;;;;;;5082045;28;20019;-87
2021/01/30 12:37:59;;;;;;;6.97;3.97;;;;;;;;;;5093833;28;20020;-88
2021/01/30 12:40:30;;;;;;;6.32;4.35;;;;;;;;;;5072810;28;20027;-88
2021/01/30 12:42:56;;;;;;;4.32;2.83;;;;;;;;;;5084899;28;20487;-88
2021/01/30 12:45:22;;;;;;;8.68;5.03;;;;;;;;;;5087394;28;20028;-89
2021/01/30 12:47:47;;;;;;;8.45;5.28;;;;;;;;;;5067669;28;20032;-89
2021/01/30 12:50:14;;;;;;;7.00;4.40;;;;;;;;;;5085894;28;20361;-89
2021/01/30 12:52:39;;;;;;;6.22;4.00;;;;;;;;;;5069292;28;20027;-89
2021/01/30 12:55:04;;;;;;;5.43;3.72;;;;;;;;;;5084815;28;20039;-90
2021/01/30 12:57:30;;;;;;;5.65;3.30;;;;;;;;;;5084346;28;20016;-89
2021/01/30 12:59:55;;;;;;;6.53;3.80;;;;;;;;;;5085000;28;20495;-87
2021/01/30 13:02:20;;;;;;;7.53;2.55;;;;;;;;;;5071556;28;20119;-88
2021/01/30 13:04:48;;;;;;;5.67;3.23;;;;;;;;;;5070494;28;20012;-87
2021/01/30 13:07:13;;;;;;;4.32;3.13;;;;;;;;;;5084376;28;20274;-86
2021/01/30 13:09:39;;;;;;;4.57;2.90;;;;;;;;;;5069904;28;20107;-88
2021/01/30 13:12:04;;;;;;;4.63;3.03;;;;;;;;;;5071977;28;20578;-87
2021/01/30 13:14:29;;;;;;;4.32;3.03;;;;;;;;;;5072519;28;20020;-89
2021/01/30 13:16:57;;;;;;;6.57;2.80;;;;;;;;;;5077651;28;20043;-86
2021/01/30 13:19:23;;;;;;;3.67;2.70;;;;;;;;;;5083222;28;20122;-87
2021/01/30 13:21:50;;;;;;;4.53;3.13;;;;;;;;;;5091303;28;20059;-86
2021/01/30 13:24:15;;;;;;;6.25;3.60;;;;;;;;;;5101325;28;20024;-89
2021/01/30 13:26:41;;;;;;;5.30;2.78;;;;;;;;;;5105890;28;20043;-87
2021/01/30 13:29:07;;;;;;;5.10;3.38;;;;;;;;;;5082709;28;20114;-87
2021/01/30 13:31:40;;;;;;;4.85;2.70;;;;;;;;;;5094290;28;20107;-88
2021/01/30 13:34:05;;;;;;;5.00;3.05;;;;;;;;;;5068346;28;20035;-88
2021/01/30 13:36:30;;;;;;;3.55;2.22;;;;;;;;;;5068239;28;20020;-89
2021/01/30 13:38:56;;;;;;;6.40;3.05;;;;;;;;;;5070471;28;20076;-88
2021/01/30 13:41:21;;;;;;;4.20;2.25;;;;;;;;;;5069028;28;20751;-89
2021/01/30 13:43:46;;;;;;;4.93;2.25;;;;;;;;;;5074313;28;20027;-90
2021/01/30 13:46:12;;;;;;;5.18;2.72;;;;;;;;;;5066410;28;20384;-90
2021/01/30 13:48:39;;;;;;;5.53;3.13;;;;;;;;;;5084979;28;20024;-89
2021/01/30 13:51:04;;;;;;;3.78;2.50;;;;;;;;;;5086506;28;20016;-88
2021/01/30 13:53:29;;;;;;;5.57;2.67;;;;;;;;;;5087056;28;20028;-87
2021/01/30 13:55:54;;;;;;;5.30;1.85;;;;;;;;;;5088333;28;20024;-88
2021/01/30 13:58:19;;;;;;;3.20;2.05;;;;;;;;;;5073676;28;20020;-88
2021/01/30 14:00:44;;;;;;;3.93;2.00;;;;;;;;;;5070901;28;20391;-87
2021/01/30 14:03:12;;;;;;;5.73;3.00;;;;;;;;;;5087778;28;20258;-88
2021/01/30 14:05:37;;;;;;;7.55;2.30;;;;;;;;;;5087590;28;20260;-87
2021/01/30 14:08:02;;;;;;;2.95;1.75;;;;;;;;;;5086560;28;20126;-86
2021/01/30 14:10:28;;;;;;;3.30;2.20;;;;;;;;;;5087460;28;20047;-85
2021/01/30 14:12:53;;;;;;;2.95;1.90;;;;;;;;;;5087745;28;20024;-88
2021/01/30 14:15:18;;;;;;;2.50;1.33;;;;;;;;;;5087952;28;20479;-85
2021/01/30 14:17:44;;;;;;;4.10;2.25;;;;;;;;;;5068681;28;20028;-87
2021/01/30 14:20:09;;;;;;;4.95;2.38;;;;;;;;;;5068463;23;20089;-64
2021/01/30 14:22:35;;;;;;;4.75;1.98;;;;;;;;;;5066176;28;20021;-64
2021/01/30 14:25:01;;;;;;;3.63;2.28;;;;;;;;;;5052268;28;20013;-64
2021/01/30 14:27:26;;;;;;;4.43;2.00;;;;;;;;;;5058492;28;20036;-64
2021/01/30 14:29:52;;;;;;;3.92;2.40;;;;;;;;;;5052879;28;20028;-64
2021/01/30 14:32:20;;;;;;;3.70;2.33;;;;;;;;;;5052265;28;20036;-64
2021/01/30 14:34:46;;;;;;;3.67;2.38;;;;;;;;;;5053430;28;20354;-64
2021/01/30 14:37:11;;;;;;;3.15;1.70;;;;;;;;;;5053204;28;20021;-64